Time;durP1;ratioP1;P1;durP2;ratioP2;P2;SDS_P1;SDS_P2;PMS_P1;PMS_P2;Temp;Humidity;BMP_temperature;BMP_pressure;BME280_temperature;BME280_humidity;BME280_pressure;Samples;Min_cycle;Max_cycle;Signal;HPM_P1;HPM_P2
2021/03/20 00:02:23;;;;;;;6.13;4.45;;;;;;;;;;5153840;27;20239;-75
2021/03/20 00:04:49;;;;;;;5.15;3.95;;;;;;;;;;5153355;27;20207;-76
2021/03/20 00:07:15;;;;;;;6.63;4.53;;;;;;;;;;5149231;27;20508;-76
2021/03/20 00:09:43;;;;;;;5.60;4.45;;;;;;;;;;5152948;27;20209;-76
2021/03/20 00:12:09;;;;;;;7.68;4.40;;;;;;;;;;5151411;27;20193;-76
2021/03/20 00:14:36;;;;;;;7.53;4.57;;;;;;;;;;5153626;27;20186;-76
2021/03/20 00:17:03;;;;;;;4.78;3.50;;;;;;;;;;5154452;27;20208;-76
2021/03/20 00:19:29;;;;;;;6.53;3.63;;;;;;;;;;5154507;27;20194;-76
2021/03/20 00:21:55;;;;;;;5.20;4.13;;;;;;;;;;5153915;27;20217;-75
2021/03/20 00:24:21;;;;;;;6.20;5.05;;;;;;;;;;5153953;27;20226;-76
2021/03/20 00:26:48;;;;;;;7.97;4.25;;;;;;;;;;5154548;27;20205;-76
2021/03/20 00:29:14;;;;;;;6.05;4.95;;;;;;;;;;5152402;27;20190;-76
2021/03/20 00:31:40;;;;;;;8.68;3.90;;;;;;;;;;5153946;27;20575;-76
2021/03/20 00:34:06;;;;;;;7.07;4.60;;;;;;;;;;5154087;27;20182;-76
2021/03/20 00:36:32;;;;;;;8.15;4.35;;;;;;;;;;5150107;27;20707;-76
2021/03/20 00:38:58;;;;;;;5.03;4.50;;;;;;;;;;5153931;27;20193;-74
2021/03/20 00:41:24;;;;;;;7.22;4.00;;;;;;;;;;5153637;27;20194;-76
2021/03/20 00:43:51;;;;;;;5.45;4.82;;;;;;;;;;5154199;27;20590;-76
2021/03/20 00:46:18;;;;;;;4.38;3.50;;;;;;;;;;5153686;27;20253;-76
2021/03/20 00:48:43;;;;;;;5.80;5.28;;;;;;;;;;5154224;27;20957;-75
2021/03/20 00:51:10;;;;;;;5.50;4.68;;;;;;;;;;5153004;27;20320;-76
2021/03/20 00:53:36;;;;;;;12.45;5.40;;;;;;;;;;5148796;27;20658;-75
2021/03/20 00:56:02;;;;;;;7.38;5.60;;;;;;;;;;5152940;27;20194;-77
2021/03/20 00:58:29;;;;;;;7.25;4.45;;;;;;;;;;5153960;27;20281;-76
2021/03/20 01:00:57;;;;;;;6.60;4.55;;;;;;;;;;5153610;27;20250;-76
2021/03/20 01:03:23;;;;;;;8.07;5.03;;;;;;;;;;5153410;27;20193;-77
2021/03/20 01:05:50;;;;;;;7.20;4.65;;;;;;;;;;5154347;27;20577;-77
2021/03/20 01:08:16;;;;;;;5.93;5.18;;;;;;;;;;5153648;27;20190;-76
2021/03/20 01:10:42;;;;;;;6.78;3.95;;;;;;;;;;5152416;27;20224;-76
2021/03/20 01:13:09;;;;;;;4.65;2.92;;;;;;;;;;5154156;27;20696;-77
2021/03/20 01:15:35;;;;;;;11.90;4.68;;;;;;;;;;5146219;27;20210;-77
2021/03/20 01:18:02;;;;;;;8.05;4.88;;;;;;;;;;5146385;27;20201;-75
2021/03/20 01:20:28;;;;;;;5.85;3.85;;;;;;;;;;5153003;27;20190;-77
2021/03/20 01:22:55;;;;;;;6.70;4.82;;;;;;;;;;5153875;27;20222;-76
2021/03/20 01:25:21;;;;;;;6.07;5.28;;;;;;;;;;5153726;27;20183;-77
2021/03/20 01:27:48;;;;;;;5.93;3.92;;;;;;;;;;5153646;27;20217;-75
2021/03/20 01:30:16;;;;;;;6.20;5.30;;;;;;;;;;5156573;27;20319;-76
2021/03/20 01:32:42;;;;;;;9.65;4.82;;;;;;;;;;5157248;27;20237;-76
2021/03/20 01:35:10;;;;;;;7.82;4.60;;;;;;;;;;5157982;27;20583;-75
2021/03/20 01:37:36;;;;;;;8.18;5.68;;;;;;;;;;5156379;27;20222;-76
2021/03/20 01:40:03;;;;;;;6.65;4.95;;;;;;;;;;5149090;27;20217;-76
2021/03/20 01:42:30;;;;;;;6.93;5.47;;;;;;;;;;5157603;27;20182;-76
2021/03/20 01:45:09;;;;;;;5.75;4.35;;;;;;;;;;5157747;27;20544;-77
2021/03/20 01:47:37;;;;;;;7.93;5.75;;;;;;;;;;5157308;27;20197;-77
2021/03/20 01:50:04;;;;;;;7.55;4.82;;;;;;;;;;5157245;27;20213;-75
2021/03/20 01:52:32;;;;;;;7.97;5.45;;;;;;;;;;5157348;27;20201;-75
2021/03/20 01:55:01;;;;;;;7.45;4.60;;;;;;;;;;5157416;27;20620;-76
2021/03/20 01:57:29;;;;;;;8.82;6.45;;;;;;;;;;5157324;27;20240;-76
2021/03/20 01:59:55;;;;;;;7.95;4.90;;;;;;;;;;5156919;27;20280;-77
2021/03/20 02:02:21;;;;;;;8.48;4.85;;;;;;;;;;5157143;27;20314;-77
2021/03/20 02:04:47;;;;;;;6.28;4.40;;;;;;;;;;5157642;27;20221;-75
2021/03/20 02:07:14;;;;;;;5.75;5.13;;;;;;;;;;5156616;27;20197;-76
2021/03/20 02:09:41;;;;;;;9.30;6.35;;;;;;;;;;5154659;27;20193;-76
2021/03/20 02:12:13;;;;;;;7.75;4.93;;;;;;;;;;5156235;27;20196;-76
2021/03/20 02:14:44;;;;;;;5.88;4.35;;;;;;;;;;5156351;27;20236;-76
2021/03/20 02:17:16;;;;;;;7.05;4.40;;;;;;;;;;5155602;27;20272;-77
2021/03/20 02:19:53;;;;;;;6.70;4.43;;;;;;;;;;5156729;27;20658;-77
2021/03/20 02:22:20;;;;;;;8.68;4.90;;;;;;;;;;5156722;27;20182;-76
2021/03/20 02:25:07;;;;;;;8.05;5.32;;;;;;;;;;5156928;27;20201;-77
2021/03/20 02:28:00;;;;;;;7.70;6.55;;;;;;;;;;5156369;27;20218;-76
2021/03/20 02:30:47;;;;;;;3.75;2.80;;;;;;;;;;5155533;27;20214;-76
2021/03/20 02:33:36;;;;;;;3.75;2.58;;;;;;;;;;5156598;27;20696;-77
2021/03/20 02:36:15;;;;;;;3.80;2.78;;;;;;;;;;5156105;27;20594;-77
2021/03/20 02:38:43;;;;;;;3.58;2.65;;;;;;;;;;5136294;27;20533;-77
2021/03/20 02:41:14;;;;;;;4.72;2.95;;;;;;;;;;5152776;27;20190;-75
2021/03/20 02:43:47;;;;;;;6.72;3.78;;;;;;;;;;5156312;27;20197;-77
2021/03/20 02:46:17;;;;;;;8.10;3.85;;;;;;;;;;5155651;27;20201;-75
2021/03/20 02:48:49;;;;;;;3.63;3.20;;;;;;;;;;5155385;27;20231;-76
2021/03/20 02:51:19;;;;;;;2.70;2.40;;;;;;;;;;5154984;27;20217;-76
2021/03/20 02:53:48;;;;;;;4.85;2.67;;;;;;;;;;5155415;27;20197;-76
2021/03/20 02:56:18;;;;;;;5.80;2.40;;;;;;;;;;5154518;27;20589;-77
2021/03/20 02:58:47;;;;;;;5.60;2.90;;;;;;;;;;5154175;27;20182;-77
2021/03/20 03:01:15;;;;;;;5.43;3.33;;;;;;;;;;5153067;27;20186;-77
2021/03/20 03:03:42;;;;;;;3.63;2.45;;;;;;;;;;5153985;27;20205;-77
2021/03/20 03:06:13;;;;;;;3.90;2.80;;;;;;;;;;5155840;27;20289;-77
2021/03/20 03:08:40;;;;;;;3.70;3.20;;;;;;;;;;5155724;27;20197;-75
2021/03/20 03:11:08;;;;;;;5.57;3.03;;;;;;;;;;5155471;27;20221;-76
2021/03/20 03:13:36;;;;;;;6.07;4.15;;;;;;;;;;5156050;27;20616;-76
2021/03/20 03:16:05;;;;;;;4.78;3.30;;;;;;;;;;5155193;27;20186;-77
2021/03/20 03:18:33;;;;;;;4.20;3.60;;;;;;;;;;5155459;27;20201;-76
2021/03/20 03:21:01;;;;;;;4.50;3.63;;;;;;;;;;5153341;27;20214;-77
2021/03/20 03:23:31;;;;;;;4.53;3.40;;;;;;;;;;5136455;27;20556;-77
2021/03/20 03:26:00;;;;;;;4.40;3.50;;;;;;;;;;5155308;27;20220;-77
2021/03/20 03:28:28;;;;;;;4.70;3.40;;;;;;;;;;5155377;27;20200;-77
2021/03/20 03:30:54;;;;;;;4.18;2.85;;;;;;;;;;5155322;27;20218;-75
2021/03/20 03:33:23;;;;;;;4.88;3.50;;;;;;;;;;5155124;27;20223;-77
2021/03/20 03:35:52;;;;;;;6.82;3.45;;;;;;;;;;5155084;27;20285;-76
2021/03/20 03:38:23;;;;;;;3.83;3.40;;;;;;;;;;5154448;27;20201;-75
2021/03/20 03:40:52;;;;;;;6.18;3.53;;;;;;;;;;5154555;27;20194;-75
2021/03/20 03:43:19;;;;;;;4.90;3.83;;;;;;;;;;5155081;27;20186;-77
2021/03/20 03:45:46;;;;;;;4.95;3.03;;;;;;;;;;5155136;27;20186;-76
2021/03/20 03:48:13;;;;;;;4.07;2.67;;;;;;;;;;5155486;27;20242;-77
2021/03/20 03:50:40;;;;;;;5.68;2.72;;;;;;;;;;5152784;27;20202;-77
2021/03/20 03:53:06;;;;;;;3.67;3.17;;;;;;;;;;5143541;27;20186;-75
2021/03/20 03:55:33;;;;;;;6.07;4.07;;;;;;;;;;5154890;27;20575;-77
2021/03/20 03:58:07;;;;;;;5.20;2.80;;;;;;;;;;5154490;27;20228;-77
2021/03/20 04:00:36;;;;;;;5.50;3.17;;;;;;;;;;5154743;27;20309;-77
2021/03/20 04:03:20;;;;;;;5.22;3.30;;;;;;;;;;5154699;27;20190;-77
2021/03/20 04:05:50;;;;;;;4.82;3.60;;;;;;;;;;5152278;27;20214;-77
2021/03/20 04:08:21;;;;;;;5.22;3.10;;;;;;;;;;5149632;27;20225;-77
2021/03/20 04:10:50;;;;;;;7.80;3.83;;;;;;;;;;5151112;27;20194;-77
2021/03/20 04:13:21;;;;;;;4.15;3.75;;;;;;;;;;5154514;27;20246;-77
2021/03/20 04:15:54;;;;;;;3.88;3.30;;;;;;;;;;5155517;27;20668;-76
2021/03/20 04:18:23;;;;;;;4.85;3.17;;;;;;;;;;5155204;27;20632;-77
2021/03/20 04:20:52;;;;;;;8.45;3.78;;;;;;;;;;5152818;27;20231;-76
2021/03/20 04:23:21;;;;;;;8.57;3.90;;;;;;;;;;5134196;27;20208;-76
2021/03/20 04:25:50;;;;;;;3.67;3.38;;;;;;;;;;5140017;27;20547;-77
2021/03/20 04:28:22;;;;;;;6.32;4.03;;;;;;;;;;5154294;27;20667;-77
2021/03/20 04:30:50;;;;;;;4.38;2.95;;;;;;;;;;5154818;27;20269;-78
2021/03/20 04:33:18;;;;;;;3.78;3.40;;;;;;;;;;5154685;27;20668;-76
2021/03/20 04:35:48;;;;;;;4.03;3.05;;;;;;;;;;5153503;27;20214;-76
2021/03/20 04:38:15;;;;;;;3.70;2.88;;;;;;;;;;5153907;27;20590;-76
2021/03/20 04:40:42;;;;;;;6.38;4.88;;;;;;;;;;5154129;27;20544;-77
2021/03/20 04:43:09;;;;;;;5.78;3.90;;;;;;;;;;5153865;27;20204;-77
2021/03/20 04:45:39;;;;;;;6.10;4.47;;;;;;;;;;5153938;27;20261;-75
2021/03/20 04:48:07;;;;;;;6.90;4.15;;;;;;;;;;5153245;27;20194;-77
2021/03/20 04:50:34;;;;;;;3.42;3.13;;;;;;;;;;5153613;27;20213;-77
2021/03/20 04:53:01;;;;;;;4.15;3.55;;;;;;;;;;5149427;27;21108;-77
2021/03/20 04:55:27;;;;;;;7.07;3.25;;;;;;;;;;5154187;27;20182;-75
2021/03/20 04:57:57;;;;;;;7.13;4.18;;;;;;;;;;5153958;27;20198;-76
2021/03/20 05:00:25;;;;;;;5.13;3.22;;;;;;;;;;5154220;27;20723;-75
2021/03/20 05:02:54;;;;;;;3.25;2.72;;;;;;;;;;5153676;27;20225;-77
2021/03/20 05:05:24;;;;;;;11.18;3.40;;;;;;;;;;5158558;27;20185;-77
2021/03/20 05:07:51;;;;;;;6.43;3.13;;;;;;;;;;5157785;27;20265;-77
2021/03/20 05:10:20;;;;;;;9.20;5.45;;;;;;;;;;5157837;27;20249;-76
2021/03/20 05:12:47;;;;;;;3.92;3.60;;;;;;;;;;5158191;27;20214;-76
2021/03/20 05:15:21;;;;;;;3.92;3.53;;;;;;;;;;5146411;27;20202;-78
2021/03/20 05:17:47;;;;;;;5.95;4.22;;;;;;;;;;5157832;27;20190;-78
2021/03/20 05:20:14;;;;;;;5.78;3.53;;;;;;;;;;5158072;27;20547;-78
2021/03/20 05:22:40;;;;;;;4.75;3.15;;;;;;;;;;5157537;27;20186;-77
2021/03/20 05:25:06;;;;;;;6.07;3.30;;;;;;;;;;5157873;27;20197;-78
2021/03/20 05:27:34;;;;;;;3.58;3.28;;;;;;;;;;5157822;27;20640;-75
2021/03/20 05:30:00;;;;;;;4.68;3.50;;;;;;;;;;5152151;27;20182;-77
2021/03/20 05:32:27;;;;;;;3.88;2.83;;;;;;;;;;5158235;27;20249;-77
2021/03/20 05:34:54;;;;;;;3.78;2.60;;;;;;;;;;5157527;27;20197;-76
2021/03/20 05:37:23;;;;;;;7.80;2.50;;;;;;;;;;5157305;27;20178;-77
2021/03/20 05:39:49;;;;;;;3.00;2.53;;;;;;;;;;5157529;27;20204;-76
2021/03/20 05:42:19;;;;;;;4.80;2.58;;;;;;;;;;5157128;27;20194;-77
2021/03/20 05:44:50;;;;;;;7.07;2.97;;;;;;;;;;5157239;27;20197;-77
2021/03/20 05:47:20;;;;;;;5.75;3.70;;;;;;;;;;5157376;27;20224;-76
2021/03/20 05:49:53;;;;;;;3.78;3.05;;;;;;;;;;5151665;27;20190;-77
2021/03/20 05:52:25;;;;;;;4.18;2.80;;;;;;;;;;5156780;27;20182;-77
2021/03/20 05:54:58;;;;;;;3.03;2.70;;;;;;;;;;5145340;27;20273;-76
2021/03/20 05:57:29;;;;;;;3.65;3.20;;;;;;;;;;5147044;27;20189;-76
2021/03/20 06:00:04;;;;;;;2.75;2.30;;;;;;;;;;5141225;27;20197;-76
2021/03/20 06:02:37;;;;;;;4.03;2.72;;;;;;;;;;5136712;27;20185;-76
2021/03/20 06:05:07;;;;;;;3.15;2.75;;;;;;;;;;5152105;27;20194;-76
2021/03/20 06:07:42;;;;;;;4.25;2.70;;;;;;;;;;5157153;27;20190;-76
2021/03/20 06:10:15;;;;;;;4.22;3.67;;;;;;;;;;5156765;27;20217;-77
2021/03/20 06:12:47;;;;;;;5.55;4.68;;;;;;;;;;5156118;27;20234;-78
2021/03/20 06:15:15;;;;;;;3.88;3.45;;;;;;;;;;5156124;27;20186;-77
2021/03/20 06:17:49;;;;;;;2.63;2.20;;;;;;;;;;5156580;27;20209;-78
2021/03/20 06:20:21;;;;;;;3.70;3.40;;;;;;;;;;5157014;27;20177;-78
2021/03/20 06:23:02;;;;;;;5.95;4.07;;;;;;;;;;5156632;27;20277;-77
2021/03/20 06:25:41;;;;;;;7.40;3.55;;;;;;;;;;5156589;27;20205;-78
2021/03/20 06:28:09;;;;;;;7.57;4.15;;;;;;;;;;5156520;27;20186;-76
2021/03/20 06:30:40;;;;;;;4.18;2.70;;;;;;;;;;5156459;27;20220;-78
2021/03/20 06:33:09;;;;;;;5.70;3.20;;;;;;;;;;5156335;27;20215;-77
2021/03/20 06:35:40;;;;;;;6.68;4.18;;;;;;;;;;5155505;27;20628;-77
2021/03/20 06:38:07;;;;;;;7.53;3.70;;;;;;;;;;5154155;27;20279;-77
2021/03/20 06:40:46;;;;;;;4.50;3.67;;;;;;;;;;5156425;27;20223;-78
2021/03/20 06:43:13;;;;;;;4.70;3.60;;;;;;;;;;5149988;27;20195;-78
2021/03/20 06:45:39;;;;;;;5.63;3.53;;;;;;;;;;5136019;27;20187;-78
2021/03/20 06:48:09;;;;;;;7.45;4.03;;;;;;;;;;5135550;27;20206;-77
2021/03/20 06:50:38;;;;;;;12.02;5.07;;;;;;;;;;5142823;27;20305;-77
2021/03/20 06:53:05;;;;;;;4.22;3.53;;;;;;;;;;5156902;27;20186;-78
2021/03/20 06:55:32;;;;;;;5.45;3.20;;;;;;;;;;5156779;27;20880;-79
2021/03/20 06:58:02;;;;;;;4.07;3.15;;;;;;;;;;5156680;27;21013;-77
2021/03/20 07:00:29;;;;;;;6.63;3.80;;;;;;;;;;5156003;27;20189;-77
2021/03/20 07:03:01;;;;;;;5.40;3.55;;;;;;;;;;5136622;27;20282;-77
2021/03/20 07:05:30;;;;;;;3.78;3.05;;;;;;;;;;5135343;27;20552;-76
2021/03/20 07:08:14;;;;;;;6.95;2.90;;;;;;;;;;5135251;27;20202;-77
2021/03/20 07:10:43;;;;;;;4.95;3.50;;;;;;;;;;5121231;27;20222;-78
2021/03/20 07:13:20;;;;;;;4.22;3.88;;;;;;;;;;5135298;27;20187;-77
2021/03/20 07:15:48;;;;;;;7.47;3.55;;;;;;;;;;5155958;27;20192;-78
2021/03/20 07:18:19;;;;;;;4.90;3.60;;;;;;;;;;5155950;27;20540;-77
2021/03/20 07:20:45;;;;;;;8.00;3.88;;;;;;;;;;5155289;27;20194;-76
2021/03/20 07:23:12;;;;;;;3.05;2.20;;;;;;;;;;5156062;27;20206;-78
2021/03/20 07:25:40;;;;;;;3.97;2.75;;;;;;;;;;5156093;27;20292;-78
2021/03/20 07:28:08;;;;;;;3.22;2.75;;;;;;;;;;5150919;27;20247;-77
2021/03/20 07:30:37;;;;;;;4.38;2.80;;;;;;;;;;5155422;27;20558;-77
2021/03/20 07:33:17;;;;;;;6.20;3.17;;;;;;;;;;5155626;27;20567;-76
2021/03/20 07:35:43;;;;;;;3.83;3.30;;;;;;;;;;5155251;27;20760;-77
2021/03/20 07:38:14;;;;;;;5.68;3.25;;;;;;;;;;5155625;27;20605;-77
2021/03/20 07:40:40;;;;;;;4.68;3.33;;;;;;;;;;5155457;27;21065;-76
2021/03/20 07:43:14;;;;;;;2.80;2.60;;;;;;;;;;5155503;27;20238;-77
2021/03/20 07:45:41;;;;;;;4.53;2.53;;;;;;;;;;5155589;27;20237;-77
2021/03/20 07:48:16;;;;;;;4.97;2.55;;;;;;;;;;5155705;27;20217;-77
2021/03/20 07:50:44;;;;;;;4.47;2.60;;;;;;;;;;5154782;27;20256;-76
2021/03/20 07:53:12;;;;;;;3.92;2.75;;;;;;;;;;5155681;27;20208;-77
2021/03/20 07:55:53;;;;;;;4.68;2.60;;;;;;;;;;5155137;27;20221;-77
2021/03/20 07:58:21;;;;;;;8.77;3.83;;;;;;;;;;5151049;27;20234;-78
2021/03/20 08:00:56;;;;;;;5.57;2.70;;;;;;;;;;5154981;27;20198;-76
2021/03/20 08:03:23;;;;;;;7.00;3.55;;;;;;;;;;5151505;27;20254;-77
2021/03/20 08:05:50;;;;;;;2.90;2.65;;;;;;;;;;5154873;27;20324;-77
2021/03/20 08:08:18;;;;;;;7.00;2.80;;;;;;;;;;5155136;27;20249;-76
2021/03/20 08:10:44;;;;;;;5.47;3.30;;;;;;;;;;5154865;27;20671;-77
2021/03/20 08:13:31;;;;;;;6.15;3.35;;;;;;;;;;5155099;27;20612;-78
2021/03/20 08:15:58;;;;;;;4.68;3.03;;;;;;;;;;5146490;27;20197;-77
2021/03/20 08:18:25;;;;;;;5.72;2.95;;;;;;;;;;5154717;27;20221;-77
2021/03/20 08:21:11;;;;;;;4.25;2.55;;;;;;;;;;5145783;27;20191;-77
2021/03/20 08:23:43;;;;;;;3.40;3.08;;;;;;;;;;5133826;27;20198;-76
2021/03/20 08:26:16;;;;;;;2.97;2.30;;;;;;;;;;5134210;27;20608;-77
2021/03/20 08:28:47;;;;;;;5.63;3.55;;;;;;;;;;5133778;27;20202;-76
2021/03/20 08:31:21;;;;;;;5.22;2.67;;;;;;;;;;5133570;27;20687;-76
2021/03/20 08:33:54;;;;;;;3.88;3.45;;;;;;;;;;5133781;27;20201;-78
2021/03/20 08:36:25;;;;;;;6.75;2.88;;;;;;;;;;5133468;27;20318;-77
2021/03/20 08:38:59;;;;;;;4.22;3.15;;;;;;;;;;5133129;27;20641;-78
2021/03/20 08:41:36;;;;;;;4.05;2.72;;;;;;;;;;5133805;27;20231;-76
2021/03/20 08:44:10;;;;;;;4.75;2.30;;;;;;;;;;5143796;27;20247;-76
2021/03/20 08:46:53;;;;;;;4.13;2.05;;;;;;;;;;5154517;27;20200;-76
2021/03/20 08:49:24;;;;;;;3.90;3.10;;;;;;;;;;5154758;27;20199;-77
2021/03/20 08:51:54;;;;;;;3.38;2.63;;;;;;;;;;5151329;27;20216;-76
2021/03/20 08:54:34;;;;;;;3.60;2.90;;;;;;;;;;5153949;27;20194;-78
2021/03/20 08:57:05;;;;;;;4.00;3.30;;;;;;;;;;5149620;27;20190;-77
2021/03/20 08:59:33;;;;;;;4.78;3.25;;;;;;;;;;5141260;27;20182;-75
2021/03/20 09:02:03;;;;;;;3.35;3.05;;;;;;;;;;5134352;27;20178;-76
2021/03/20 09:04:31;;;;;;;5.97;3.30;;;;;;;;;;5154465;27;20209;-78
2021/03/20 09:06:58;;;;;;;7.60;4.00;;;;;;;;;;5153783;27;20951;-76
2021/03/20 09:09:28;;;;;;;4.18;3.22;;;;;;;;;;5153924;27;20515;-76
2021/03/20 09:11:57;;;;;;;7.10;4.00;;;;;;;;;;5153639;27;20215;-73
2021/03/20 09:14:25;;;;;;;5.43;2.42;;;;;;;;;;5153126;27;20289;-75
2021/03/20 09:16:52;;;;;;;5.07;3.63;;;;;;;;;;5154145;27;20190;-75
2021/03/20 09:19:22;;;;;;;5.00;3.25;;;;;;;;;;5147387;27;20597;-74
2021/03/20 09:21:48;;;;;;;5.75;3.17;;;;;;;;;;5133245;28;20291;-74
2021/03/20 09:24:16;;;;;;;3.47;2.95;;;;;;;;;;5132977;28;20182;-75
2021/03/20 09:26:45;;;;;;;5.30;3.60;;;;;;;;;;5134717;27;20316;-74
2021/03/20 09:29:16;;;;;;;6.50;3.03;;;;;;;;;;5153481;27;20269;-75
2021/03/20 09:31:56;;;;;;;5.10;2.60;;;;;;;;;;5154212;27;20702;-75
2021/03/20 09:34:27;;;;;;;6.20;3.60;;;;;;;;;;5153519;27;20258;-76
2021/03/20 09:36:53;;;;;;;4.43;2.60;;;;;;;;;;5153022;27;20231;-76
2021/03/20 09:39:34;;;;;;;3.60;2.73;;;;;;;;;;5153683;27;20315;-75
2021/03/20 09:42:01;;;;;;;5.57;2.65;;;;;;;;;;5153709;27;20771;-75
2021/03/20 09:44:27;;;;;;;4.95;3.30;;;;;;;;;;5153839;27;20235;-75
2021/03/20 09:46:54;;;;;;;3.08;2.15;;;;;;;;;;5153190;27;20202;-75
2021/03/20 09:49:48;;;;;;;7.28;2.88;;;;;;;;;;5153879;27;20270;-76
2021/03/20 09:52:29;;;;;;;4.10;2.63;;;;;;;;;;5157150;27;20707;-75
2021/03/20 09:54:55;;;;;;;3.50;3.20;;;;;;;;;;5157411;27;20198;-76
2021/03/20 09:57:39;;;;;;;4.23;2.90;;;;;;;;;;5157030;27;20305;-75
2021/03/20 10:00:06;;;;;;;5.47;3.55;;;;;;;;;;5156884;27;20478;-74
2021/03/20 10:02:34;;;;;;;4.38;2.88;;;;;;;;;;5157457;27;20688;-75
2021/03/20 10:05:03;;;;;;;3.15;2.53;;;;;;;;;;5157035;27;20273;-75
2021/03/20 10:07:33;;;;;;;3.30;3.00;;;;;;;;;;5156761;27;20186;-75
2021/03/20 10:10:01;;;;;;;6.97;2.90;;;;;;;;;;5156513;27;20201;-76
2021/03/20 10:12:35;;;;;;;4.38;3.55;;;;;;;;;;5156961;27;20304;-76
2021/03/20 10:15:09;;;;;;;15.15;8.18;;;;;;;;;;5156813;27;20193;-77
2021/03/20 10:17:55;;;;;;;5.72;3.30;;;;;;;;;;5155999;27;20186;-75
2021/03/20 10:20:23;;;;;;;2.63;2.20;;;;;;;;;;5157089;27;20202;-75
2021/03/20 10:22:51;;;;;;;6.90;3.13;;;;;;;;;;5156553;27;20280;-75
2021/03/20 10:25:18;;;;;;;3.97;2.92;;;;;;;;;;5156527;27;20183;-76
2021/03/20 10:27:47;;;;;;;5.03;2.67;;;;;;;;;;5156379;27;20210;-77
2021/03/20 10:30:14;;;;;;;3.33;2.17;;;;;;;;;;5156476;27;20678;-76
2021/03/20 10:32:54;;;;;;;2.10;1.90;;;;;;;;;;5156439;27;20690;-76
2021/03/20 10:35:20;;;;;;;3.53;2.30;;;;;;;;;;5156596;27;20236;-74
2021/03/20 10:37:47;;;;;;;6.18;2.35;;;;;;;;;;5156859;27;20258;-76
2021/03/20 10:40:14;;;;;;;4.35;2.92;;;;;;;;;;5156373;27;20209;-74
2021/03/20 10:42:42;;;;;;;5.25;2.85;;;;;;;;;;5156912;27;20193;-75
2021/03/20 10:45:15;;;;;;;5.55;3.05;;;;;;;;;;5156345;27;20245;-77
2021/03/20 10:47:42;;;;;;;3.13;2.50;;;;;;;;;;5156636;27;20527;-76
2021/03/20 10:50:22;;;;;;;4.05;2.63;;;;;;;;;;5155544;27;20206;-75
2021/03/20 10:52:51;;;;;;;3.90;2.72;;;;;;;;;;5155722;27;20268;-75
2021/03/20 10:55:22;;;;;;;1.83;1.45;;;;;;;;;;5156330;27;20550;-76
2021/03/20 10:57:49;;;;;;;3.38;3.00;;;;;;;;;;5155718;27;20631;-76
2021/03/20 11:00:19;;;;;;;4.75;2.85;;;;;;;;;;5156267;27;20200;-76
2021/03/20 11:02:45;;;;;;;2.90;1.90;;;;;;;;;;5155690;27;20205;-75
2021/03/20 11:05:14;;;;;;;6.00;3.23;;;;;;;;;;5155816;27;20662;-75
2021/03/20 11:07:46;;;;;;;4.15;2.78;;;;;;;;;;5151200;27;21000;-75
2021/03/20 11:10:14;;;;;;;3.90;2.42;;;;;;;;;;5151391;27;20639;-73
2021/03/20 11:12:40;;;;;;;3.50;3.13;;;;;;;;;;5135046;27;20306;-76
2021/03/20 11:15:07;;;;;;;3.10;1.98;;;;;;;;;;5134625;27;20190;-75
2021/03/20 11:17:33;;;;;;;3.40;2.17;;;;;;;;;;5142781;27;20529;-75
2021/03/20 11:20:00;;;;;;;3.17;2.22;;;;;;;;;;5152083;27;20205;-76
2021/03/20 11:22:27;;;;;;;3.88;2.08;;;;;;;;;;5154914;27;20198;-76
2021/03/20 11:24:54;;;;;;;7.65;2.40;;;;;;;;;;5152255;27;20199;-75
2021/03/20 11:27:23;;;;;;;3.75;2.85;;;;;;;;;;5134731;27;20668;-76
2021/03/20 11:29:51;;;;;;;7.30;3.17;;;;;;;;;;5143684;27;20190;-75
2021/03/20 11:32:21;;;;;;;3.63;2.70;;;;;;;;;;5154368;27;20623;-74
2021/03/20 11:34:49;;;;;;;3.50;2.33;;;;;;;;;;5151036;27;20218;-75
2021/03/20 11:37:19;;;;;;;3.75;2.55;;;;;;;;;;5155328;27;20197;-76
2021/03/20 11:39:46;;;;;;;4.93;2.53;;;;;;;;;;5146523;27;20278;-74
2021/03/20 11:42:14;;;;;;;3.45;2.58;;;;;;;;;;5134526;27;20265;-75
2021/03/20 11:44:43;;;;;;;4.13;2.33;;;;;;;;;;5135104;27;20613;-74
2021/03/20 11:47:18;;;;;;;3.05;2.15;;;;;;;;;;5139097;27;20597;-74
2021/03/20 11:49:45;;;;;;;4.97;3.10;;;;;;;;;;5146199;27;20185;-74
2021/03/20 11:52:15;;;;;;;5.90;2.20;;;;;;;;;;5154671;27;20222;-73
2021/03/20 11:54:42;;;;;;;2.22;2.00;;;;;;;;;;5149035;27;20516;-75
2021/03/20 11:57:14;;;;;;;3.80;2.50;;;;;;;;;;5134642;27;20544;-75
2021/03/20 11:59:41;;;;;;;5.25;2.90;;;;;;;;;;5134560;27;20229;-75
2021/03/20 12:02:11;;;;;;;2.97;2.10;;;;;;;;;;5137902;27;20198;-75
2021/03/20 12:04:37;;;;;;;4.18;2.20;;;;;;;;;;5133666;27;20285;-75
2021/03/20 12:07:21;;;;;;;3.63;2.20;;;;;;;;;;5133921;27;20613;-75
2021/03/20 12:09:48;;;;;;;2.40;2.20;;;;;;;;;;5133767;27;20501;-74
2021/03/20 12:12:14;;;;;;;3.40;2.30;;;;;;;;;;5151318;27;20210;-74
2021/03/20 12:14:42;;;;;;;4.00;2.47;;;;;;;;;;5153409;27;20213;-75
2021/03/20 12:17:17;;;;;;;4.55;2.67;;;;;;;;;;5146787;27;20217;-75
2021/03/20 12:19:51;;;;;;;3.50;2.50;;;;;;;;;;5151388;27;20751;-76
2021/03/20 12:22:27;;;;;;;2.70;2.20;;;;;;;;;;5154403;27;20596;-74
2021/03/20 12:24:59;;;;;;;2.67;2.08;;;;;;;;;;5154348;27;20612;-76
2021/03/20 12:27:27;;;;;;;3.60;2.60;;;;;;;;;;5154200;27;20222;-76
2021/03/20 12:29:54;;;;;;;2.90;1.95;;;;;;;;;;5153524;27;20250;-76
2021/03/20 12:32:34;;;;;;;3.72;2.50;;;;;;;;;;5136263;27;20233;-75
2021/03/20 12:35:19;;;;;;;2.42;2.13;;;;;;;;;;5133383;27;20229;-76
2021/03/20 12:37:46;;;;;;;3.53;2.25;;;;;;;;;;5146449;27;20276;-75
2021/03/20 12:40:12;;;;;;;4.00;2.20;;;;;;;;;;5133449;27;20261;-76
2021/03/20 12:42:38;;;;;;;3.28;2.28;;;;;;;;;;5133452;27;20197;-76
2021/03/20 12:45:05;;;;;;;2.38;2.13;;;;;;;;;;5133253;27;20194;-76
2021/03/20 12:47:32;;;;;;;3.00;2.50;;;;;;;;;;5139372;27;20205;-76
2021/03/20 12:49:58;;;;;;;4.97;2.80;;;;;;;;;;5135589;27;20574;-75
2021/03/20 12:52:24;;;;;;;3.10;2.80;;;;;;;;;;5154148;27;20240;-74
2021/03/20 12:54:54;;;;;;;2.63;2.35;;;;;;;;;;5154190;27;20244;-75
2021/03/20 12:57:22;;;;;;;7.07;3.08;;;;;;;;;;5154089;27;20711;-76
2021/03/20 12:59:48;;;;;;;3.70;2.17;;;;;;;;;;5154384;27;20183;-75
2021/03/20 13:02:14;;;;;;;3.10;1.37;;;;;;;;;;5151357;27;20235;-76
2021/03/20 13:04:41;;;;;;;2.17;1.85;;;;;;;;;;5142731;27;20431;-76
2021/03/20 13:07:08;;;;;;;2.83;1.45;;;;;;;;;;5153734;27;20206;-76
2021/03/20 13:09:34;;;;;;;3.38;2.20;;;;;;;;;;5153632;27;20241;-74
2021/03/20 13:12:00;;;;;;;3.83;2.33;;;;;;;;;;5147379;27;20198;-76
2021/03/20 13:14:26;;;;;;;2.83;2.47;;;;;;;;;;5133052;28;20195;-77
2021/03/20 13:16:52;;;;;;;3.80;2.37;;;;;;;;;;5133408;27;20629;-78
2021/03/20 13:19:18;;;;;;;2.50;2.10;;;;;;;;;;5154142;27;20511;-77
2021/03/20 13:21:45;;;;;;;4.35;2.20;;;;;;;;;;5139614;27;20822;-76
2021/03/20 13:24:11;;;;;;;3.30;2.22;;;;;;;;;;5133177;27;20284;-77
2021/03/20 13:26:37;;;;;;;6.80;2.13;;;;;;;;;;5136586;27;20216;-76
2021/03/20 13:29:03;;;;;;;4.47;1.98;;;;;;;;;;5136852;27;20446;-76
2021/03/20 13:31:30;;;;;;;2.63;1.80;;;;;;;;;;5137869;27;20210;-75
2021/03/20 13:33:56;;;;;;;3.05;2.63;;;;;;;;;;5157525;27;20209;-75
2021/03/20 13:36:23;;;;;;;4.18;2.50;;;;;;;;;;5157409;27;20227;-76
2021/03/20 13:38:50;;;;;;;3.95;2.20;;;;;;;;;;5155492;27;20240;-75
2021/03/20 13:41:16;;;;;;;3.13;2.60;;;;;;;;;;5157419;27;20629;-76
2021/03/20 13:43:42;;;;;;;2.90;1.90;;;;;;;;;;5139998;27;20209;-75
2021/03/20 13:46:08;;;;;;;2.90;1.63;;;;;;;;;;5136991;27;20220;-77
2021/03/20 13:48:36;;;;;;;6.70;3.10;;;;;;;;;;5135853;27;20232;-76
2021/03/20 13:51:02;;;;;;;3.28;2.50;;;;;;;;;;5141671;27;20469;-77
2021/03/20 13:53:30;;;;;;;2.30;2.10;;;;;;;;;;5146676;27;20212;-78
2021/03/20 13:55:58;;;;;;;5.75;2.67;;;;;;;;;;5136011;27;20290;-76
2021/03/20 13:58:24;;;;;;;3.10;2.80;;;;;;;;;;5136342;27;20258;-77
2021/03/20 14:00:52;;;;;;;2.17;1.70;;;;;;;;;;5136844;27;20217;-77
2021/03/20 14:03:18;;;;;;;3.58;2.95;;;;;;;;;;5149398;27;20648;-77
2021/03/20 14:05:44;;;;;;;2.88;2.20;;;;;;;;;;5137582;27;20190;-77
2021/03/20 14:08:10;;;;;;;2.40;2.28;;;;;;;;;;5143168;27;20222;-75
2021/03/20 14:10:37;;;;;;;3.33;2.53;;;;;;;;;;5156382;27;20301;-77
2021/03/20 14:13:05;;;;;;;7.57;2.60;;;;;;;;;;5156550;27;20735;-76
2021/03/20 14:15:31;;;;;;;2.42;2.10;;;;;;;;;;5156967;27;20577;-77
2021/03/20 14:17:57;;;;;;;11.25;2.38;;;;;;;;;;5137686;27;20218;-76
2021/03/20 14:20:24;;;;;;;4.15;2.45;;;;;;;;;;5136258;27;20282;-76
2021/03/20 14:22:51;;;;;;;3.35;2.33;;;;;;;;;;5136007;27;20218;-76
2021/03/20 14:25:17;;;;;;;5.15;2.70;;;;;;;;;;5136333;27;20229;-77
2021/03/20 14:27:43;;;;;;;4.68;2.47;;;;;;;;;;5135957;27;20924;-77
2021/03/20 14:30:11;;;;;;;3.00;2.70;;;;;;;;;;5136358;27;20189;-76
2021/03/20 14:32:36;;;;;;;2.85;2.30;;;;;;;;;;5153776;27;21236;-77
2021/03/20 14:35:03;;;;;;;3.60;1.90;;;;;;;;;;5156394;27;20308;-76
2021/03/20 14:37:29;;;;;;;2.13;1.88;;;;;;;;;;5156241;27;20468;-75
2021/03/20 14:39:55;;;;;;;6.10;2.78;;;;;;;;;;5156774;27;20235;-76
2021/03/20 14:42:21;;;;;;;4.05;2.50;;;;;;;;;;5156166;27;20262;-76
2021/03/20 14:44:47;;;;;;;2.87;2.50;;;;;;;;;;5155956;27;20285;-77
2021/03/20 14:47:13;;;;;;;2.73;2.53;;;;;;;;;;5156145;27;20428;-77
2021/03/20 14:49:39;;;;;;;2.60;2.25;;;;;;;;;;5156553;27;20784;-76
2021/03/20 14:52:06;;;;;;;3.97;2.73;;;;;;;;;;5155976;27;20304;-77
2021/03/20 14:54:32;;;;;;;3.60;2.50;;;;;;;;;;5156219;27;20497;-78
2021/03/20 14:56:58;;;;;;;3.03;2.00;;;;;;;;;;5156088;27;20225;-78